sensor_id;sensor_type;location;lat;lon;timestamp;temperature;humidity
31074;DHT22;17730;53.552;9.940;2022-08-30T00:00:24;15.90;99.90
31074;DHT22;17730;53.552;9.940;2022-08-30T00:03:11;15.90;99.90
31074;DHT22;17730;53.552;9.940;2022-08-30T00:05:48;15.90;99.90
31074;DHT22;17730;53.552;9.940;2022-08-30T00:08:18;15.90;99.90
31074;DHT22;17730;53.552;9.940;2022-08-30T00:10:46;15.90;99.90
31074;DHT22;17730;53.552;9.940;2022-08-30T00:13:16;15.90;99.90
31074;DHT22;17730;53.552;9.940;2022-08-30T00:15:42;15.90;99.90
31074;DHT22;17730;53.552;9.940;2022-08-30T00:18:09;15.90;99.90
31074;DHT22;17730;53.552;9.940;2022-08-30T00:20:36;15.90;99.90
31074;DHT22;17730;53.552;9.940;2022-08-30T00:23:03;15.90;99.90
31074;DHT22;17730;53.552;9.940;2022-08-30T00:25:29;15.90;99.90
31074;DHT22;17730;53.552;9.940;2022-08-30T00:27:55;15.90;99.90
31074;DHT22;17730;53.552;9.940;2022-08-30T00:30:21;16.00;99.90
31074;DHT22;17730;53.552;9.940;2022-08-30T00:32:47;16.00;99.90
31074;DHT22;17730;53.552;9.940;2022-08-30T00:35:15;16.00;99.90
31074;DHT22;17730;53.552;9.940;2022-08-30T00:37:41;16.00;99.90
31074;DHT22;17730;53.552;9.940;2022-08-30T00:40:08;16.00;99.90
31074;DHT22;17730;53.552;9.940;2022-08-30T00:42:34;16.00;99.90
31074;DHT22;17730;53.552;9.940;2022-08-30T00:45:09;16.10;99.90
31074;DHT22;17730;53.552;9.940;2022-08-30T00:47:35;16.10;99.90
31074;DHT22;17730;53.552;9.940;2022-08-30T00:50:01;16.10;99.90
31074;DHT22;17730;53.552;9.940;2022-08-30T00:52:27;16.10;99.90
31074;DHT22;17730;53.552;9.940;2022-08-30T00:54:52;16.20;99.90
31074;DHT22;17730;53.552;9.940;2022-08-30T00:57:19;16.20;99.90
31074;DHT22;17730;53.552;9.940;2022-08-30T00:59:47;16.20;99.90
31074;DHT22;17730;53.552;9.940;2022-08-30T01:02:16;16.20;99.90
31074;DHT22;17730;53.552;9.940;2022-08-30T01:04:43;16.10;99.90
31074;DHT22;17730;53.552;9.940;2022-08-30T01:07:09;16.10;99.90
31074;DHT22;17730;53.552;9.940;2022-08-30T01:09:36;16.20;99.90
31074;DHT22;17730;53.552;9.940;2022-08-30T01:12:03;16.20;99.90
31074;DHT22;17730;53.552;9.940;2022-08-30T01:14:30;16.10;99.90
31074;DHT22;17730;53.552;9.940;2022-08-30T01:16:58;16.20;99.90
31074;DHT22;17730;53.552;9.940;2022-08-30T01:22:16;16.10;99.90
31074;DHT22;17730;53.552;9.940;2022-08-30T01:24:44;16.10;99.90
31074;DHT22;17730;53.552;9.940;2022-08-30T01:27:13;16.10;99.90
31074;DHT22;17730;53.552;9.940;2022-08-30T01:29:40;16.10;99.90
31074;DHT22;17730;53.552;9.940;2022-08-30T01:32:15;16.10;99.90
31074;DHT22;17730;53.552;9.940;2022-08-30T01:34:43;16.20;99.90
31074;DHT22;17730;53.552;9.940;2022-08-30T01:37:09;16.20;99.90
31074;DHT22;17730;53.552;9.940;2022-08-30T01:39:35;16.10;99.90
31074;DHT22;17730;53.552;9.940;2022-08-30T01:42:02;16.10;99.90
31074;DHT22;17730;53.552;9.940;2022-08-30T01:44:27;16.00;99.90
31074;DHT22;17730;53.552;9.940;2022-08-30T01:46:53;16.00;99.90
31074;DHT22;17730;53.552;9.940;2022-08-30T01:49:19;16.00;99.90
31074;DHT22;17730;53.552;9.940;2022-08-30T01:51:45;16.00;99.90
31074;DHT22;17730;53.552;9.940;2022-08-30T01:54:11;16.00;99.90
31074;DHT22;17730;53.552;9.940;2022-08-30T01:56:36;16.00;99.90
31074;DHT22;17730;53.552;9.940;2022-08-30T01:59:03;16.00;99.90
31074;DHT22;17730;53.552;9.940;2022-08-30T02:01:33;16.00;99.90
31074;DHT22;17730;53.552;9.940;2022-08-30T02:04:02;15.90;99.90
31074;DHT22;17730;53.552;9.940;2022-08-30T02:06:27;15.90;99.90
31074;DHT22;17730;53.552;9.940;2022-08-30T02:08:53;15.90;99.90
31074;DHT22;17730;53.552;9.940;2022-08-30T02:11:19;15.80;99.90
31074;DHT22;17730;53.552;9.940;2022-08-30T02:13:45;15.80;99.90
31074;DHT22;17730;53.552;9.940;2022-08-30T02:16:14;15.80;99.90
31074;DHT22;17730;53.552;9.940;2022-08-30T02:18:40;15.80;99.90
31074;DHT22;17730;53.552;9.940;2022-08-30T02:21:07;15.70;99.90
31074;DHT22;17730;53.552;9.940;2022-08-30T02:23:32;15.80;99.90
31074;DHT22;17730;53.552;9.940;2022-08-30T02:25:58;15.80;99.90
31074;DHT22;17730;53.552;9.940;2022-08-30T02:28:24;15.70;99.90
31074;DHT22;17730;53.552;9.940;2022-08-30T02:30:51;15.70;99.90
31074;DHT22;17730;53.552;9.940;2022-08-30T02:33:16;15.70;99.90
31074;DHT22;17730;53.552;9.940;2022-08-30T02:35:42;15.70;99.90
31074;DHT22;17730;53.552;9.940;2022-08-30T02:38:08;15.70;99.90
31074;DHT22;17730;53.552;9.940;2022-08-30T02:40:34;15.70;99.90
31074;DHT22;17730;53.552;9.940;2022-08-30T02:43:00;15.70;99.90
31074;DHT22;17730;53.552;9.940;2022-08-30T02:45:26;15.70;99.90
31074;DHT22;17730;53.552;9.940;2022-08-30T02:47:51;15.70;99.90
31074;DHT22;17730;53.552;9.940;2022-08-30T02:50:17;15.70;99.90
31074;DHT22;17730;53.552;9.940;2022-08-30T02:52:43;15.70;99.90
31074;DHT22;17730;53.552;9.940;2022-08-30T02:55:13;15.60;99.90
31074;DHT22;17730;53.552;9.940;2022-08-30T02:57:39;15.60;99.90
31074;DHT22;17730;53.552;9.940;2022-08-30T03:00:07;15.60;99.90
31074;DHT22;17730;53.552;9.940;2022-08-30T03:02:33;15.60;99.90
31074;DHT22;17730;53.552;9.940;2022-08-30T03:04:58;15.70;99.90
31074;DHT22;17730;53.552;9.940;2022-08-30T03:07:24;15.60;99.90
31074;DHT22;17730;53.552;9.940;2022-08-30T03:09:50;15.70;99.90
31074;DHT22;17730;53.552;9.940;2022-08-30T03:12:15;15.70;99.90
31074;DHT22;17730;53.552;9.940;2022-08-30T03:14:42;15.70;99.90
31074;DHT22;17730;53.552;9.940;2022-08-30T03:17:08;15.70;99.90
31074;DHT22;17730;53.552;9.940;2022-08-30T03:19:34;15.70;99.90
31074;DHT22;17730;53.552;9.940;2022-08-30T03:22:01;15.70;99.90
31074;DHT22;17730;53.552;9.940;2022-08-30T03:24:27;15.70;99.90
31074;DHT22;17730;53.552;9.940;2022-08-30T03:26:53;15.60;99.90
31074;DHT22;17730;53.552;9.940;2022-08-30T03:29:18;15.60;99.90
31074;DHT22;17730;53.552;9.940;2022-08-30T03:31:44;15.60;99.90
31074;DHT22;17730;53.552;9.940;2022-08-30T03:34:10;15.50;99.90
31074;DHT22;17730;53.552;9.940;2022-08-30T03:36:37;15.50;99.90
31074;DHT22;17730;53.552;9.940;2022-08-30T03:39:04;15.50;99.90
31074;DHT22;17730;53.552;9.940;2022-08-30T03:41:31;15.50;99.90
31074;DHT22;17730;53.552;9.940;2022-08-30T03:43:58;15.50;99.90
31074;DHT22;17730;53.552;9.940;2022-08-30T03:46:24;15.50;99.90
31074;DHT22;17730;53.552;9.940;2022-08-30T03:48:49;15.40;99.90
31074;DHT22;17730;53.552;9.940;2022-08-30T03:51:17;15.40;99.90
31074;DHT22;17730;53.552;9.940;2022-08-30T03:53:43;15.40;99.90
31074;DHT22;17730;53.552;9.940;2022-08-30T03:56:09;15.40;99.90
31074;DHT22;17730;53.552;9.940;2022-08-30T03:58:35;15.40;99.90
31074;DHT22;17730;53.552;9.940;2022-08-30T04:01:02;15.40;99.90
31074;DHT22;17730;53.552;9.940;2022-08-30T04:03:27;15.40;99.90
31074;DHT22;17730;53.552;9.940;2022-08-30T04:05:54;15.40;99.90
31074;DHT22;17730;53.552;9.940;2022-08-30T04:08:20;15.40;99.90
31074;DHT22;17730;53.552;9.940;2022-08-30T04:10:50;15.40;99.90
31074;DHT22;17730;53.552;9.940;2022-08-30T04:13:18;15.30;99.90
31074;DHT22;17730;53.552;9.940;2022-08-30T04:15:44;15.30;99.90
31074;DHT22;17730;53.552;9.940;2022-08-30T04:18:10;15.30;99.90
31074;DHT22;17730;53.552;9.940;2022-08-30T04:20:35;15.30;99.90
31074;DHT22;17730;53.552;9.940;2022-08-30T04:23:03;15.30;99.90
31074;DHT22;17730;53.552;9.940;2022-08-30T04:25:33;15.30;99.90
31074;DHT22;17730;53.552;9.940;2022-08-30T04:27:59;15.30;99.90
31074;DHT22;17730;53.552;9.940;2022-08-30T04:30:25;15.30;99.90
31074;DHT22;17730;53.552;9.940;2022-08-30T04:32:51;15.40;99.90
31074;DHT22;17730;53.552;9.940;2022-08-30T04:35:16;15.50;99.90
31074;DHT22;17730;53.552;9.940;2022-08-30T04:37:45;15.50;99.90
31074;DHT22;17730;53.552;9.940;2022-08-30T04:40:11;15.40;99.90
31074;DHT22;17730;53.552;9.940;2022-08-30T04:42:39;15.40;99.90
31074;DHT22;17730;53.552;9.940;2022-08-30T04:45:07;15.40;99.90
31074;DHT22;17730;53.552;9.940;2022-08-30T04:47:34;15.30;99.90
31074;DHT22;17730;53.552;9.940;2022-08-30T04:49:59;15.30;99.90
31074;DHT22;17730;53.552;9.940;2022-08-30T04:52:25;15.30;99.90
31074;DHT22;17730;53.552;9.940;2022-08-30T04:54:55;15.30;99.90
31074;DHT22;17730;53.552;9.940;2022-08-30T04:57:22;15.30;99.90
31074;DHT22;17730;53.552;9.940;2022-08-30T04:59:47;15.40;99.90
31074;DHT22;17730;53.552;9.940;2022-08-30T05:02:17;15.30;99.90
31074;DHT22;17730;53.552;9.940;2022-08-30T05:04:43;15.30;99.90
31074;DHT22;17730;53.552;9.940;2022-08-30T05:07:30;15.30;99.90
31074;DHT22;17730;53.552;9.940;2022-08-30T05:09:55;15.40;99.90
31074;DHT22;17730;53.552;9.940;2022-08-30T05:12:21;15.40;99.90
31074;DHT22;17730;53.552;9.940;2022-08-30T05:14:48;15.40;99.90
31074;DHT22;17730;53.552;9.940;2022-08-30T05:17:13;15.50;99.90
31074;DHT22;17730;53.552;9.940;2022-08-30T05:19:39;15.50;99.90
31074;DHT22;17730;53.552;9.940;2022-08-30T05:22:05;15.50;99.90
31074;DHT22;17730;53.552;9.940;2022-08-30T05:24:31;15.50;99.90
31074;DHT22;17730;53.552;9.940;2022-08-30T05:26:57;15.50;99.90
31074;DHT22;17730;53.552;9.940;2022-08-30T05:29:23;15.60;99.90
31074;DHT22;17730;53.552;9.940;2022-08-30T05:31:52;15.60;99.90
31074;DHT22;17730;53.552;9.940;2022-08-30T05:34:17;15.70;99.90
31074;DHT22;17730;53.552;9.940;2022-08-30T05:36:44;15.70;99.90
31074;DHT22;17730;53.552;9.940;2022-08-30T05:39:10;15.70;99.90
31074;DHT22;17730;53.552;9.940;2022-08-30T05:41:37;15.80;99.90
31074;DHT22;17730;53.552;9.940;2022-08-30T05:44:05;15.80;99.90
31074;DHT22;17730;53.552;9.940;2022-08-30T05:46:31;15.80;99.90
31074;DHT22;17730;53.552;9.940;2022-08-30T05:49:01;15.90;99.90
31074;DHT22;17730;53.552;9.940;2022-08-30T05:51:33;15.90;99.90
31074;DHT22;17730;53.552;9.940;2022-08-30T05:53:59;15.90;99.90
31074;DHT22;17730;53.552;9.940;2022-08-30T05:56:30;15.90;99.90
31074;DHT22;17730;53.552;9.940;2022-08-30T05:58:56;15.90;99.90
31074;DHT22;17730;53.552;9.940;2022-08-30T06:01:31;15.90;99.90
31074;DHT22;17730;53.552;9.940;2022-08-30T06:03:58;16.00;99.90
31074;DHT22;17730;53.552;9.940;2022-08-30T06:06:26;16.10;99.90
31074;DHT22;17730;53.552;9.940;2022-08-30T06:08:52;16.10;99.90
31074;DHT22;17730;53.552;9.940;2022-08-30T06:11:20;16.20;99.90
31074;DHT22;17730;53.552;9.940;2022-08-30T06:13:47;16.20;99.90
31074;DHT22;17730;53.552;9.940;2022-08-30T06:16:15;16.40;99.90
31074;DHT22;17730;53.552;9.940;2022-08-30T06:18:42;16.50;99.90
31074;DHT22;17730;53.552;9.940;2022-08-30T06:21:08;16.60;99.90
31074;DHT22;17730;53.552;9.940;2022-08-30T06:23:39;16.60;99.90
31074;DHT22;17730;53.552;9.940;2022-08-30T06:26:06;16.70;99.90
31074;DHT22;17730;53.552;9.940;2022-08-30T06:28:48;16.90;99.90
31074;DHT22;17730;53.552;9.940;2022-08-30T06:31:15;16.90;99.90
31074;DHT22;17730;53.552;9.940;2022-08-30T06:33:45;17.00;99.90
31074;DHT22;17730;53.552;9.940;2022-08-30T06:36:31;17.20;99.90
31074;DHT22;17730;53.552;9.940;2022-08-30T06:38:58;17.30;99.90
31074;DHT22;17730;53.552;9.940;2022-08-30T06:41:26;17.30;99.90
31074;DHT22;17730;53.552;9.940;2022-08-30T06:43:54;17.30;99.90
31074;DHT22;17730;53.552;9.940;2022-08-30T06:46:24;17.20;99.90
31074;DHT22;17730;53.552;9.940;2022-08-30T06:48:50;17.20;99.90
31074;DHT22;17730;53.552;9.940;2022-08-30T06:51:21;17.30;99.90
31074;DHT22;17730;53.552;9.940;2022-08-30T06:53:48;17.30;99.90
31074;DHT22;17730;53.552;9.940;2022-08-30T06:56:15;17.50;99.90
31074;DHT22;17730;53.552;9.940;2022-08-30T06:58:41;17.40;99.90
31074;DHT22;17730;53.552;9.940;2022-08-30T07:01:12;17.40;99.90
31074;DHT22;17730;53.552;9.940;2022-08-30T07:03:38;17.50;99.90
31074;DHT22;17730;53.552;9.940;2022-08-30T07:06:04;17.60;99.90
31074;DHT22;17730;53.552;9.940;2022-08-30T07:08:33;17.70;99.90
31074;DHT22;17730;53.552;9.940;2022-08-30T07:11:10;17.70;99.90
31074;DHT22;17730;53.552;9.940;2022-08-30T07:13:37;17.80;99.90
31074;DHT22;17730;53.552;9.940;2022-08-30T07:16:11;17.80;99.90
31074;DHT22;17730;53.552;9.940;2022-08-30T07:18:37;17.90;99.90
31074;DHT22;17730;53.552;9.940;2022-08-30T07:21:28;17.90;99.90
31074;DHT22;17730;53.552;9.940;2022-08-30T07:23:56;17.90;99.90
31074;DHT22;17730;53.552;9.940;2022-08-30T07:26:27;18.00;99.90
31074;DHT22;17730;53.552;9.940;2022-08-30T07:28:53;18.10;99.90
31074;DHT22;17730;53.552;9.940;2022-08-30T07:31:19;18.20;99.90
31074;DHT22;17730;53.552;9.940;2022-08-30T07:33:46;18.30;99.90
31074;DHT22;17730;53.552;9.940;2022-08-30T07:36:20;18.30;99.90
31074;DHT22;17730;53.552;9.940;2022-08-30T07:38:47;18.50;99.90
31074;DHT22;17730;53.552;9.940;2022-08-30T07:41:18;18.60;99.90
31074;DHT22;17730;53.552;9.940;2022-08-30T07:43:44;18.70;99.90
31074;DHT22;17730;53.552;9.940;2022-08-30T07:46:10;18.70;99.90
31074;DHT22;17730;53.552;9.940;2022-08-30T07:48:37;19.00;99.90
31074;DHT22;17730;53.552;9.940;2022-08-30T07:51:07;19.10;99.90
31074;DHT22;17730;53.552;9.940;2022-08-30T07:53:53;19.20;99.90
31074;DHT22;17730;53.552;9.940;2022-08-30T07:56:19;19.20;99.90
31074;DHT22;17730;53.552;9.940;2022-08-30T07:58:45;19.20;99.90
31074;DHT22;17730;53.552;9.940;2022-08-30T08:01:12;19.20;99.90
31074;DHT22;17730;53.552;9.940;2022-08-30T08:03:40;19.20;99.90
31074;DHT22;17730;53.552;9.940;2022-08-30T08:06:07;19.20;99.90
31074;DHT22;17730;53.552;9.940;2022-08-30T08:08:34;19.40;99.90
31074;DHT22;17730;53.552;9.940;2022-08-30T08:11:13;19.50;99.90
31074;DHT22;17730;53.552;9.940;2022-08-30T08:13:40;19.40;99.90
31074;DHT22;17730;53.552;9.940;2022-08-30T08:16:07;19.40;99.90
31074;DHT22;17730;53.552;9.940;2022-08-30T08:18:32;19.60;99.90
31074;DHT22;17730;53.552;9.940;2022-08-30T08:20:59;19.70;99.90
31074;DHT22;17730;53.552;9.940;2022-08-30T08:23:25;20.00;99.90
31074;DHT22;17730;53.552;9.940;2022-08-30T08:25:51;20.00;99.90
31074;DHT22;17730;53.552;9.940;2022-08-30T08:28:17;20.00;99.90
31074;DHT22;17730;53.552;9.940;2022-08-30T08:30:45;20.10;99.90
31074;DHT22;17730;53.552;9.940;2022-08-30T08:33:11;20.10;99.90
31074;DHT22;17730;53.552;9.940;2022-08-30T08:35:43;20.00;99.90
31074;DHT22;17730;53.552;9.940;2022-08-30T08:38:11;19.90;99.90
31074;DHT22;17730;53.552;9.940;2022-08-30T08:40:59;20.10;99.90
31074;DHT22;17730;53.552;9.940;2022-08-30T08:43:33;20.20;99.90
31074;DHT22;17730;53.552;9.940;2022-08-30T08:49:48;20.00;99.90
31074;DHT22;17730;53.552;9.940;2022-08-30T08:52:45;20.10;99.90
31074;DHT22;17730;53.552;9.940;2022-08-30T08:55:35;20.10;99.90
31074;DHT22;17730;53.552;9.940;2022-08-30T08:58:02;20.10;99.90
31074;DHT22;17730;53.552;9.940;2022-08-30T09:00:29;20.30;99.90
31074;DHT22;17730;53.552;9.940;2022-08-30T09:03:00;20.50;99.90
31074;DHT22;17730;53.552;9.940;2022-08-30T09:05:37;20.70;99.90
31074;DHT22;17730;53.552;9.940;2022-08-30T09:08:09;21.00;99.90
31074;DHT22;17730;53.552;9.940;2022-08-30T09:10:41;21.20;99.90
31074;DHT22;17730;53.552;9.940;2022-08-30T09:13:21;21.10;99.90
31074;DHT22;17730;53.552;9.940;2022-08-30T09:15:53;21.10;99.90
31074;DHT22;17730;53.552;9.940;2022-08-30T09:18:19;21.10;99.90
31074;DHT22;17730;53.552;9.940;2022-08-30T09:20:49;21.20;99.90
31074;DHT22;17730;53.552;9.940;2022-08-30T09:23:25;21.30;99.90
31074;DHT22;17730;53.552;9.940;2022-08-30T09:26:03;21.30;99.90
31074;DHT22;17730;53.552;9.940;2022-08-30T09:28:49;21.30;99.90
31074;DHT22;17730;53.552;9.940;2022-08-30T09:31:29;20.90;99.90
31074;DHT22;17730;53.552;9.940;2022-08-30T09:34:04;20.70;99.90
31074;DHT22;17730;53.552;9.940;2022-08-30T09:36:43;20.60;99.90
31074;DHT22;17730;53.552;9.940;2022-08-30T09:39:19;20.40;99.90
31074;DHT22;17730;53.552;9.940;2022-08-30T09:41:50;20.30;99.90
31074;DHT22;17730;53.552;9.940;2022-08-30T09:44:27;20.40;99.90
31074;DHT22;17730;53.552;9.940;2022-08-30T09:47:01;20.40;99.90
31074;DHT22;17730;53.552;9.940;2022-08-30T09:49:36;20.50;99.90
31074;DHT22;17730;53.552;9.940;2022-08-30T09:52:23;20.60;99.90
31074;DHT22;17730;53.552;9.940;2022-08-30T10:00:32;20.80;99.90
31074;DHT22;17730;53.552;9.940;2022-08-30T10:05:54;20.80;99.90
31074;DHT22;17730;53.552;9.940;2022-08-30T10:11:31;20.80;99.90
31074;DHT22;17730;53.552;9.940;2022-08-30T10:17:12;20.80;99.90
31074;DHT22;17730;53.552;9.940;2022-08-30T10:26:08;20.40;99.90
31074;DHT22;17730;53.552;9.940;2022-08-30T10:28:49;20.70;99.90
31074;DHT22;17730;53.552;9.940;2022-08-30T10:31:32;20.80;99.90
31074;DHT22;17730;53.552;9.940;2022-08-30T10:34:09;20.70;99.90
31074;DHT22;17730;53.552;9.940;2022-08-30T10:36:47;20.70;99.90
31074;DHT22;17730;53.552;9.940;2022-08-30T10:39:26;20.90;99.90
31074;DHT22;17730;53.552;9.940;2022-08-30T10:42:00;20.90;99.90
31074;DHT22;17730;53.552;9.940;2022-08-30T10:44:35;20.90;99.90
31074;DHT22;17730;53.552;9.940;2022-08-30T10:47:29;21.10;99.90
31074;DHT22;17730;53.552;9.940;2022-08-30T10:50:24;21.10;99.90
31074;DHT22;17730;53.552;9.940;2022-08-30T10:56:05;21.20;99.90
31074;DHT22;17730;53.552;9.940;2022-08-30T10:58:40;21.20;99.90
31074;DHT22;17730;53.552;9.940;2022-08-30T11:12:58;21.70;99.90
31074;DHT22;17730;53.552;9.940;2022-08-30T11:15:34;22.20;99.90
31074;DHT22;17730;53.552;9.940;2022-08-30T11:20:46;22.70;99.40
31074;DHT22;17730;53.552;9.940;2022-08-30T11:23:34;22.60;98.70
31074;DHT22;17730;53.552;9.940;2022-08-30T11:26:04;22.60;99.00
31074;DHT22;17730;53.552;9.940;2022-08-30T11:33:49;22.40;99.20
31074;DHT22;17730;53.552;9.940;2022-08-30T11:39:43;21.70;99.90
31074;DHT22;17730;53.552;9.940;2022-08-30T11:42:45;21.40;99.90
31074;DHT22;17730;53.552;9.940;2022-08-30T11:47:52;21.20;99.90
31074;DHT22;17730;53.552;9.940;2022-08-30T11:53:35;21.20;99.90
31074;DHT22;17730;53.552;9.940;2022-08-30T11:56:18;21.10;99.90
31074;DHT22;17730;53.552;9.940;2022-08-30T11:58:51;21.10;99.90
31074;DHT22;17730;53.552;9.940;2022-08-30T12:06:46;21.40;99.90
31074;DHT22;17730;53.552;9.940;2022-08-30T12:11:58;21.90;99.90
31074;DHT22;17730;53.552;9.940;2022-08-30T12:22:40;21.70;99.90
31074;DHT22;17730;53.552;9.940;2022-08-30T12:25:16;21.60;99.90
31074;DHT22;17730;53.552;9.940;2022-08-30T12:27:44;21.60;99.90
31074;DHT22;17730;53.552;9.940;2022-08-30T12:30:11;21.50;99.90
31074;DHT22;17730;53.552;9.940;2022-08-30T12:32:47;21.30;99.90
31074;DHT22;17730;53.552;9.940;2022-08-30T12:35:22;21.20;99.90
31074;DHT22;17730;53.552;9.940;2022-08-30T12:37:57;21.00;99.90
31074;DHT22;17730;53.552;9.940;2022-08-30T12:40:24;21.10;99.90
31074;DHT22;17730;53.552;9.940;2022-08-30T12:43:05;21.40;99.90
31074;DHT22;17730;53.552;9.940;2022-08-30T12:45:45;21.30;99.90
31074;DHT22;17730;53.552;9.940;2022-08-30T12:48:16;21.40;99.90
31074;DHT22;17730;53.552;9.940;2022-08-30T12:53:13;21.60;99.90
31074;DHT22;17730;53.552;9.940;2022-08-30T12:55:56;21.50;99.90
31074;DHT22;17730;53.552;9.940;2022-08-30T13:01:32;21.20;99.90
31074;DHT22;17730;53.552;9.940;2022-08-30T13:04:20;21.60;99.90
31074;DHT22;17730;53.552;9.940;2022-08-30T13:06:54;21.80;99.80
31074;DHT22;17730;53.552;9.940;2022-08-30T13:09:39;21.80;99.40
31074;DHT22;17730;53.552;9.940;2022-08-30T13:12:19;22.00;99.40
31074;DHT22;17730;53.552;9.940;2022-08-30T13:14:45;22.00;99.00
31074;DHT22;17730;53.552;9.940;2022-08-30T13:19:56;22.50;98.80
31074;DHT22;17730;53.552;9.940;2022-08-30T13:22:28;22.60;98.40
31074;DHT22;17730;53.552;9.940;2022-08-30T13:24:54;22.50;98.30
31074;DHT22;17730;53.552;9.940;2022-08-30T13:27:20;22.40;98.30
31074;DHT22;17730;53.552;9.940;2022-08-30T13:29:49;22.30;98.50
31074;DHT22;17730;53.552;9.940;2022-08-30T13:32:16;22.40;98.40
31074;DHT22;17730;53.552;9.940;2022-08-30T13:34:42;22.30;98.20
31074;DHT22;17730;53.552;9.940;2022-08-30T13:37:13;22.30;98.70
31074;DHT22;17730;53.552;9.940;2022-08-30T13:39:39;22.10;98.80
31074;DHT22;17730;53.552;9.940;2022-08-30T13:42:06;21.80;98.90
31074;DHT22;17730;53.552;9.940;2022-08-30T13:44:35;21.60;99.50
31074;DHT22;17730;53.552;9.940;2022-08-30T13:47:01;21.30;99.40
31074;DHT22;17730;53.552;9.940;2022-08-30T13:49:32;21.20;99.70
31074;DHT22;17730;53.552;9.940;2022-08-30T13:52:05;21.10;99.70
31074;DHT22;17730;53.552;9.940;2022-08-30T13:54:32;21.10;99.50
31074;DHT22;17730;53.552;9.940;2022-08-30T13:56:57;21.00;99.90
31074;DHT22;17730;53.552;9.940;2022-08-30T13:59:24;21.10;99.80
31074;DHT22;17730;53.552;9.940;2022-08-30T14:01:54;21.10;99.40
31074;DHT22;17730;53.552;9.940;2022-08-30T14:04:21;21.30;98.90
31074;DHT22;17730;53.552;9.940;2022-08-30T14:06:50;21.60;98.50
31074;DHT22;17730;53.552;9.940;2022-08-30T14:09:15;21.50;98.30
31074;DHT22;17730;53.552;9.940;2022-08-30T14:11:44;21.40;98.10
31074;DHT22;17730;53.552;9.940;2022-08-30T14:14:10;21.40;98.00
31074;DHT22;17730;53.552;9.940;2022-08-30T14:16:39;21.50;98.00
31074;DHT22;17730;53.552;9.940;2022-08-30T14:19:05;21.50;97.70
31074;DHT22;17730;53.552;9.940;2022-08-30T14:21:33;21.40;97.90
31074;DHT22;17730;53.552;9.940;2022-08-30T14:24:01;21.40;97.70
31074;DHT22;17730;53.552;9.940;2022-08-30T14:26:32;21.60;97.50
31074;DHT22;17730;53.552;9.940;2022-08-30T14:29:09;21.70;97.40
31074;DHT22;17730;53.552;9.940;2022-08-30T14:31:38;21.80;96.90
31074;DHT22;17730;53.552;9.940;2022-08-30T14:34:10;21.80;96.60
31074;DHT22;17730;53.552;9.940;2022-08-30T14:36:41;21.90;96.50
31074;DHT22;17730;53.552;9.940;2022-08-30T14:39:11;21.80;96.40
31074;DHT22;17730;53.552;9.940;2022-08-30T14:41:45;21.70;96.80
31074;DHT22;17730;53.552;9.940;2022-08-30T14:44:18;21.80;96.60
31074;DHT22;17730;53.552;9.940;2022-08-30T14:46:44;21.60;96.50
31074;DHT22;17730;53.552;9.940;2022-08-30T14:49:11;21.30;97.00
31074;DHT22;17730;53.552;9.940;2022-08-30T14:51:38;21.20;97.40
31074;DHT22;17730;53.552;9.940;2022-08-30T14:54:08;21.20;97.40
31074;DHT22;17730;53.552;9.940;2022-08-30T14:56:35;21.40;97.20
31074;DHT22;17730;53.552;9.940;2022-08-30T14:59:01;21.40;96.70
31074;DHT22;17730;53.552;9.940;2022-08-30T15:01:28;21.20;96.80
31074;DHT22;17730;53.552;9.940;2022-08-30T15:03:55;21.10;97.10
31074;DHT22;17730;53.552;9.940;2022-08-30T15:06:21;21.30;96.90
31074;DHT22;17730;53.552;9.940;2022-08-30T15:08:48;21.50;96.80
31074;DHT22;17730;53.552;9.940;2022-08-30T15:11:16;21.80;96.60
31074;DHT22;17730;53.552;9.940;2022-08-30T15:13:42;21.80;96.40
31074;DHT22;17730;53.552;9.940;2022-08-30T15:16:20;22.00;96.30
31074;DHT22;17730;53.552;9.940;2022-08-30T15:18:47;21.90;96.50
31074;DHT22;17730;53.552;9.940;2022-08-30T15:21:13;21.70;96.70
31074;DHT22;17730;53.552;9.940;2022-08-30T15:23:38;21.30;97.20
31074;DHT22;17730;53.552;9.940;2022-08-30T15:26:05;21.00;97.70
31074;DHT22;17730;53.552;9.940;2022-08-30T15:28:31;20.90;97.70
31074;DHT22;17730;53.552;9.940;2022-08-30T15:30:56;20.70;97.90
31074;DHT22;17730;53.552;9.940;2022-08-30T15:33:23;20.70;98.10
31074;DHT22;17730;53.552;9.940;2022-08-30T15:35:50;20.60;98.20
31074;DHT22;17730;53.552;9.940;2022-08-30T15:38:17;20.60;98.10
31074;DHT22;17730;53.552;9.940;2022-08-30T15:40:47;20.50;98.20
31074;DHT22;17730;53.552;9.940;2022-08-30T15:43:12;20.40;98.40
31074;DHT22;17730;53.552;9.940;2022-08-30T15:45:38;20.40;98.60
31074;DHT22;17730;53.552;9.940;2022-08-30T15:48:04;20.40;98.30
31074;DHT22;17730;53.552;9.940;2022-08-30T15:50:29;20.50;98.50
31074;DHT22;17730;53.552;9.940;2022-08-30T15:52:55;20.60;98.40
31074;DHT22;17730;53.552;9.940;2022-08-30T15:55:21;20.70;98.20
31074;DHT22;17730;53.552;9.940;2022-08-30T15:57:46;20.70;98.40
31074;DHT22;17730;53.552;9.940;2022-08-30T16:00:13;20.60;98.60
31074;DHT22;17730;53.552;9.940;2022-08-30T16:02:38;20.60;98.50
31074;DHT22;17730;53.552;9.940;2022-08-30T16:05:04;20.60;98.60
31074;DHT22;17730;53.552;9.940;2022-08-30T16:07:30;20.60;98.50
31074;DHT22;17730;53.552;9.940;2022-08-30T16:09:56;20.50;98.70
31074;DHT22;17730;53.552;9.940;2022-08-30T16:12:21;20.30;98.70
31074;DHT22;17730;53.552;9.940;2022-08-30T16:14:47;20.20;99.00
31074;DHT22;17730;53.552;9.940;2022-08-30T16:17:13;20.20;99.20
31074;DHT22;17730;53.552;9.940;2022-08-30T16:19:38;20.20;99.10
31074;DHT22;17730;53.552;9.940;2022-08-30T16:22:04;20.20;99.00
31074;DHT22;17730;53.552;9.940;2022-08-30T16:24:30;20.20;98.70
31074;DHT22;17730;53.552;9.940;2022-08-30T16:26:56;20.30;98.80
31074;DHT22;17730;53.552;9.940;2022-08-30T16:29:21;20.30;98.70
31074;DHT22;17730;53.552;9.940;2022-08-30T16:31:48;20.40;98.70
31074;DHT22;17730;53.552;9.940;2022-08-30T16:34:15;20.40;98.20
31074;DHT22;17730;53.552;9.940;2022-08-30T16:36:41;20.30;97.80
31074;DHT22;17730;53.552;9.940;2022-08-30T16:39:08;20.10;97.30
31074;DHT22;17730;53.552;9.940;2022-08-30T16:41:35;20.10;96.60
31074;DHT22;17730;53.552;9.940;2022-08-30T16:44:01;20.20;96.40
31074;DHT22;17730;53.552;9.940;2022-08-30T16:46:27;20.20;95.70
31074;DHT22;17730;53.552;9.940;2022-08-30T16:48:55;20.40;95.60
31074;DHT22;17730;53.552;9.940;2022-08-30T16:51:22;20.60;94.70
31074;DHT22;17730;53.552;9.940;2022-08-30T16:53:48;20.70;94.10
31074;DHT22;17730;53.552;9.940;2022-08-30T16:56:20;20.70;92.20
31074;DHT22;17730;53.552;9.940;2022-08-30T16:58:47;20.70;92.00
31074;DHT22;17730;53.552;9.940;2022-08-30T17:01:13;20.80;91.70
31074;DHT22;17730;53.552;9.940;2022-08-30T17:03:39;20.90;91.10
31074;DHT22;17730;53.552;9.940;2022-08-30T17:06:06;20.90;91.00